Time;durP1;ratioP1;P1;durP2;ratioP2;P2;SDS_P1;SDS_P2;PMS_P1;PMS_P2;Temp;Humidity;BMP_temperature;BMP_pressure;BME280_temperature;BME280_humidity;BME280_pressure;Samples;Min_cycle;Max_cycle;Signal;HPM_P1;HPM_P2
2023/08/19 00:01:20;;;;;;;26.40;24.50;;;20.60;99.90;;;;;;5038330;28;20213;-54
2023/08/19 00:03:45;;;;;;;27.57;25.43;;;20.50;99.90;;;;;;5039007;28;20585;-51
2023/08/19 00:06:31;;;;;;;26.63;24.53;;;20.50;99.90;;;;;;5039997;28;20173;-46
2023/08/19 00:08:57;;;;;;;26.03;24.03;;;20.50;99.90;;;;;;5039022;28;20201;-55
2023/08/19 00:11:22;;;;;;;24.90;23.00;;;20.50;99.90;;;;;;5022625;28;20432;-53
2023/08/19 00:13:48;;;;;;;25.17;23.17;;;20.50;99.90;;;;;;5039571;28;20185;-51
2023/08/19 00:16:14;;;;;;;27.40;25.20;;;20.50;99.90;;;;;;5038701;28;20185;-49
2023/08/19 00:18:39;;;;;;;25.90;23.80;;;20.40;99.90;;;;;;5036006;28;20185;-55
2023/08/19 00:21:05;;;;;;;25.23;23.23;;;20.50;99.90;;;;;;5039836;28;20190;-54
2023/08/19 00:23:30;;;;;;;27.47;25.33;;;20.40;99.90;;;;;;5039108;28;20185;-48
2023/08/19 00:25:56;;;;;;;27.17;24.87;;;20.40;99.90;;;;;;5039709;28;20178;-55
2023/08/19 00:28:22;;;;;;;25.63;23.73;;;20.40;99.90;;;;;;5039341;28;20216;-56
2023/08/19 00:30:48;;;;;;;26.97;24.87;;;20.30;99.90;;;;;;5038475;28;20478;-53
2023/08/19 00:33:13;;;;;;;26.23;24.13;;;20.30;99.90;;;;;;5038073;28;20178;-53
2023/08/19 00:35:40;;;;;;;26.57;24.47;;;20.30;99.90;;;;;;5038009;28;20182;-48
2023/08/19 00:38:06;;;;;;;26.87;24.77;;;20.30;99.90;;;;;;5039690;28;20650;-55
2023/08/19 00:40:31;;;;;;;26.57;24.33;;;20.30;99.90;;;;;;5039083;28;20432;-53
2023/08/19 00:42:57;;;;;;;26.10;24.00;;;20.30;99.90;;;;;;5038958;28;20539;-51
2023/08/19 00:45:23;;;;;;;27.03;24.87;;;20.20;99.90;;;;;;5039589;28;20611;-53
2023/08/19 00:47:49;;;;;;;27.30;25.10;;;20.20;99.90;;;;;;5039725;28;20532;-55
2023/08/19 00:50:15;;;;;;;26.80;24.70;;;20.20;99.90;;;;;;5038961;28;20529;-53
2023/08/19 00:52:41;;;;;;;26.67;24.57;;;20.20;99.90;;;;;;5040086;28;20490;-49
2023/08/19 00:55:08;;;;;;;26.70;24.67;;;20.20;99.90;;;;;;5038735;28;20424;-54
2023/08/19 00:57:36;;;;;;;26.30;24.30;;;20.20;99.90;;;;;;5038799;28;20506;-52
2023/08/19 01:00:03;;;;;;;27.13;24.97;;;20.10;99.90;;;;;;5038529;28;20436;-55
2023/08/19 01:02:29;;;;;;;25.30;23.30;;;20.10;99.90;;;;;;5038878;28;21064;-52
2023/08/19 01:04:55;;;;;;;26.37;24.27;;;20.10;99.90;;;;;;5037858;28;20444;-52
2023/08/19 01:07:49;;;;;;;26.30;24.40;;;20.10;99.90;;;;;;5039245;28;20604;-51
2023/08/19 01:10:39;;;;;;;27.00;24.80;;;20.10;99.90;;;;;;5038707;28;20186;-55
2023/08/19 01:13:14;;;;;;;27.37;24.97;;;20.10;99.90;;;;;;5038178;28;20830;-49
2023/08/19 01:16:08;;;;;;;27.07;24.80;;;20.00;99.90;;;;;;5038756;28;20458;-53
2023/08/19 01:18:36;;;;;;;27.17;25.07;;;20.00;99.90;;;;;;5037360;28;20527;-52
2023/08/19 01:21:03;;;;;;;28.13;25.73;;;20.00;99.90;;;;;;5021448;28;20451;-51
2023/08/19 01:23:41;;;;;;;28.30;26.00;;;19.90;99.90;;;;;;5038898;28;20424;-53
2023/08/19 01:26:07;;;;;;;27.23;24.97;;;19.90;99.90;;;;;;5016691;28;20794;-54
2023/08/19 01:28:32;;;;;;;28.33;26.13;;;19.90;99.90;;;;;;5037533;28;20506;-53
2023/08/19 01:30:59;;;;;;;29.27;26.87;;;19.90;99.90;;;;;;5038879;28;20213;-52
2023/08/19 01:33:25;;;;;;;25.53;23.43;;;19.90;99.90;;;;;;5040882;28;21167;-51
2023/08/19 01:36:13;;;;;;;27.27;25.03;;;19.80;99.90;;;;;;5042901;28;20515;-47
2023/08/19 01:38:59;;;;;;;27.23;24.93;;;19.80;99.90;;;;;;5041030;28;20542;-47
2023/08/19 01:41:28;;;;;;;27.60;25.30;;;19.80;99.90;;;;;;5042796;28;20439;-55
2023/08/19 01:43:58;;;;;;;27.43;25.30;;;19.70;99.90;;;;;;5041953;28;20428;-53
2023/08/19 01:46:24;;;;;;;26.63;24.53;;;19.70;99.90;;;;;;5043100;28;20420;-50
2023/08/19 01:48:50;;;;;;;27.97;25.57;;;19.70;99.90;;;;;;5023250;28;20436;-51
2023/08/19 01:51:16;;;;;;;27.80;25.50;;;19.60;99.90;;;;;;5043562;28;20416;-55
2023/08/19 01:53:41;;;;;;;27.13;24.93;;;19.70;99.90;;;;;;5042296;28;20275;-52
2023/08/19 01:56:07;;;;;;;26.43;24.27;;;19.70;99.90;;;;;;5042697;28;20186;-52
2023/08/19 01:58:33;;;;;;;26.03;23.90;;;19.70;99.90;;;;;;5042739;28;20593;-53
2023/08/19 02:00:58;;;;;;;27.30;25.10;;;19.60;99.90;;;;;;5042863;28;20186;-54
2023/08/19 02:03:24;;;;;;;26.80;24.70;;;19.60;99.90;;;;;;5043246;28;20189;-54
2023/08/19 02:05:49;;;;;;;28.07;25.77;;;19.60;99.90;;;;;;5042322;28;20214;-53
2023/08/19 02:08:15;;;;;;;28.80;26.60;;;19.60;99.90;;;;;;5043344;28;20213;-51
2023/08/19 02:10:42;;;;;;;26.83;24.63;;;19.50;99.90;;;;;;5042591;28;20178;-53
2023/08/19 02:13:08;;;;;;;27.03;24.83;;;19.50;99.90;;;;;;5042138;28;20260;-54
2023/08/19 02:15:34;;;;;;;27.20;24.90;;;19.50;99.90;;;;;;5043002;28;20415;-54
2023/08/19 02:17:59;;;;;;;28.03;25.20;;;19.50;99.90;;;;;;5042740;28;20999;-51
2023/08/19 02:20:26;;;;;;;28.90;26.50;;;19.50;99.90;;;;;;5043168;28;20214;-52
2023/08/19 02:22:52;;;;;;;27.70;25.20;;;19.40;99.90;;;;;;5041674;28;20186;-54
2023/08/19 02:25:18;;;;;;;27.07;24.87;;;19.40;99.90;;;;;;5042362;28;20557;-53
2023/08/19 02:27:44;;;;;;;27.53;25.33;;;19.30;99.90;;;;;;5040869;28;20606;-54
2023/08/19 02:30:10;;;;;;;28.30;26.00;;;19.30;99.90;;;;;;5042058;28;20177;-51
2023/08/19 02:32:38;;;;;;;28.40;26.10;;;19.30;99.90;;;;;;5042610;28;20194;-55
2023/08/19 02:35:04;;;;;;;27.50;25.30;;;19.30;99.90;;;;;;5041326;28;20424;-54
2023/08/19 02:37:29;;;;;;;27.80;25.47;;;19.30;99.90;;;;;;5042338;28;21204;-51
2023/08/19 02:39:55;;;;;;;28.67;26.27;;;19.30;99.90;;;;;;5040255;28;20458;-54
2023/08/19 02:42:20;;;;;;;28.47;26.00;;;19.20;99.90;;;;;;5040779;28;20181;-53
2023/08/19 02:44:46;;;;;;;27.63;25.30;;;19.20;99.90;;;;;;5040754;28;20272;-51
2023/08/19 02:47:12;;;;;;;26.87;24.67;;;19.10;99.90;;;;;;5042222;28;20217;-51
2023/08/19 02:49:38;;;;;;;27.67;25.37;;;19.10;99.90;;;;;;5039347;28;20432;-54
2023/08/19 02:52:05;;;;;;;27.73;25.43;;;19.10;99.90;;;;;;5039141;28;20189;-53
2023/08/19 02:54:30;;;;;;;29.03;26.40;;;19.10;99.90;;;;;;5039425;28;20182;-53
2023/08/19 02:56:56;;;;;;;28.10;25.80;;;19.10;99.90;;;;;;5041223;28;20429;-54
2023/08/19 02:59:22;;;;;;;27.10;24.50;;;19.10;99.90;;;;;;5041781;28;20277;-51
2023/08/19 03:01:47;;;;;;;29.17;26.60;;;19.10;99.90;;;;;;5040502;28;20642;-55
2023/08/19 03:04:13;;;;;;;29.03;26.60;;;19.10;99.90;;;;;;5041028;28;20197;-54
2023/08/19 03:06:38;;;;;;;27.70;25.13;;;19.00;99.90;;;;;;5040919;28;20579;-55
2023/08/19 03:09:05;;;;;;;27.40;25.20;;;19.00;99.90;;;;;;5041626;28;20186;-53
2023/08/19 03:11:30;;;;;;;28.37;25.67;;;19.00;99.90;;;;;;5041834;28;20675;-52
2023/08/19 03:13:56;;;;;;;28.40;26.03;;;19.00;99.90;;;;;;5041538;28;20423;-51
2023/08/19 03:16:21;;;;;;;28.87;26.30;;;19.00;99.90;;;;;;5041552;28;20533;-53
2023/08/19 03:18:47;;;;;;;28.20;25.70;;;19.00;99.90;;;;;;5041382;28;20192;-54
2023/08/19 03:21:13;;;;;;;26.70;24.50;;;19.00;99.90;;;;;;5041515;28;20178;-52
2023/08/19 03:23:38;;;;;;;27.90;25.30;;;19.00;99.90;;;;;;5041024;28;20185;-52
2023/08/19 03:26:04;;;;;;;27.70;25.33;;;19.00;99.90;;;;;;5040474;28;20781;-52
2023/08/19 03:28:29;;;;;;;26.93;24.73;;;19.00;99.90;;;;;;5041410;28;20267;-52
2023/08/19 03:30:55;;;;;;;26.83;24.60;;;19.00;99.90;;;;;;5041199;28;20200;-55
2023/08/19 03:33:21;;;;;;;28.73;26.23;;;18.90;99.90;;;;;;5040666;28;20649;-50
2023/08/19 03:35:46;;;;;;;28.23;25.83;;;18.90;99.90;;;;;;5040865;28;20186;-52
2023/08/19 03:38:13;;;;;;;28.70;26.40;;;18.90;99.90;;;;;;5040993;28;20190;-55
2023/08/19 03:40:39;;;;;;;27.97;25.70;;;18.90;99.90;;;;;;5040759;28;20519;-51
2023/08/19 03:43:07;;;;;;;27.97;25.57;;;18.80;99.90;;;;;;5040506;28;20416;-52
2023/08/19 03:45:34;;;;;;;27.87;25.60;;;18.80;99.90;;;;;;5040426;28;20189;-53
2023/08/19 03:47:59;;;;;;;27.60;25.30;;;18.80;99.90;;;;;;5041243;28;20470;-47
2023/08/19 03:50:25;;;;;;;27.97;25.47;;;18.80;99.90;;;;;;5039523;28;20847;-49
2023/08/19 03:52:51;;;;;;;29.13;26.63;;;18.80;99.90;;;;;;5022760;28;20189;-55
2023/08/19 03:55:16;;;;;;;28.03;25.60;;;18.80;99.90;;;;;;5035672;28;20182;-51
2023/08/19 03:57:42;;;;;;;27.77;25.27;;;18.80;99.90;;;;;;5038789;28;20190;-55
2023/08/19 04:00:08;;;;;;;28.37;25.80;;;18.80;99.90;;;;;;5039355;28;20178;-55
2023/08/19 04:02:34;;;;;;;28.40;25.80;;;18.80;99.90;;;;;;5040047;28;20182;-52
2023/08/19 04:05:01;;;;;;;29.00;26.57;;;18.80;99.90;;;;;;5039993;28;20424;-46
2023/08/19 04:07:27;;;;;;;28.03;25.43;;;18.80;99.90;;;;;;5038904;28;20201;-52
2023/08/19 04:09:57;;;;;;;27.53;25.23;;;18.80;99.90;;;;;;5036920;28;20462;-47
2023/08/19 04:12:26;;;;;;;27.77;25.37;;;18.80;99.90;;;;;;5022753;28;20416;-55
2023/08/19 04:14:53;;;;;;;27.57;25.17;;;18.80;99.90;;;;;;5040154;28;20466;-55
2023/08/19 04:17:19;;;;;;;28.00;25.70;;;18.80;99.90;;;;;;5040476;28;20439;-56
2023/08/19 04:19:45;;;;;;;27.37;24.97;;;18.80;99.90;;;;;;5039480;28;20432;-54
2023/08/19 04:22:19;;;;;;;28.00;25.53;;;18.80;99.90;;;;;;5040314;28;21307;-55
2023/08/19 04:24:52;;;;;;;27.07;24.83;;;18.80;99.90;;;;;;5039198;28;20980;-56
2023/08/19 04:27:19;;;;;;;27.03;24.67;;;18.80;99.90;;;;;;5040095;28;20633;-53
2023/08/19 04:29:45;;;;;;;26.63;24.13;;;18.80;99.90;;;;;;5038837;28;20515;-54
2023/08/19 04:32:11;;;;;;;27.57;24.93;;;18.90;99.90;;;;;;5040160;28;20926;-51
2023/08/19 04:34:36;;;;;;;27.70;25.40;;;18.90;99.90;;;;;;5039387;28;20494;-52
2023/08/19 04:37:03;;;;;;;26.20;24.10;;;18.90;99.90;;;;;;5039482;28;20205;-50
2023/08/19 04:39:28;;;;;;;26.03;23.77;;;18.90;99.90;;;;;;5040134;28;20197;-53
2023/08/19 04:41:54;;;;;;;28.50;25.70;;;18.90;99.90;;;;;;5040084;28;20416;-52
2023/08/19 04:44:20;;;;;;;27.47;25.17;;;19.00;99.90;;;;;;5039273;28;20182;-52
2023/08/19 04:46:45;;;;;;;27.23;25.00;;;19.00;99.90;;;;;;5038814;28;20559;-53
2023/08/19 04:49:11;;;;;;;27.13;25.00;;;19.00;99.90;;;;;;5039334;28;20732;-53
2023/08/19 04:51:37;;;;;;;27.00;24.70;;;19.00;99.90;;;;;;5039683;28;20177;-55
2023/08/19 04:54:03;;;;;;;27.20;24.70;;;19.00;99.90;;;;;;5020268;28;20435;-55
2023/08/19 04:56:29;;;;;;;28.10;25.70;;;19.00;99.90;;;;;;5038100;28;20455;-55
2023/08/19 04:58:55;;;;;;;27.80;25.60;;;19.10;99.90;;;;;;5039968;28;20182;-53
2023/08/19 05:01:21;;;;;;;28.83;26.37;;;19.00;99.90;;;;;;5037295;28;21441;-49
2023/08/19 05:03:47;;;;;;;28.27;25.77;;;19.10;99.90;;;;;;5039273;28;20436;-54
2023/08/19 05:06:12;;;;;;;27.17;24.90;;;19.10;99.90;;;;;;5040075;28;21259;-49
2023/08/19 05:08:38;;;;;;;26.60;24.50;;;19.10;99.90;;;;;;5041067;28;20216;-53
2023/08/19 05:11:04;;;;;;;27.10;24.90;;;19.20;99.90;;;;;;5041588;28;20185;-52
2023/08/19 05:13:29;;;;;;;27.20;24.90;;;19.20;99.90;;;;;;5043110;28;20186;-53
2023/08/19 05:15:58;;;;;;;26.20;24.17;;;19.30;99.90;;;;;;5043829;28;20185;-50
2023/08/19 05:18:24;;;;;;;26.60;24.20;;;19.30;99.90;;;;;;5042629;28;20217;-50
2023/08/19 05:20:50;;;;;;;26.50;24.20;;;19.30;99.90;;;;;;5043202;28;20515;-54
2023/08/19 05:23:16;;;;;;;26.77;24.53;;;19.40;99.90;;;;;;5043687;28;21208;-53
2023/08/19 05:25:42;;;;;;;27.07;24.87;;;19.40;99.90;;;;;;5041961;28;20225;-49
2023/08/19 05:28:07;;;;;;;26.00;23.83;;;19.50;99.90;;;;;;5043571;28;20743;-50
2023/08/19 05:30:33;;;;;;;24.53;22.63;;;19.50;99.90;;;;;;5043773;28;20443;-54
2023/08/19 05:32:59;;;;;;;25.67;23.33;;;19.60;99.90;;;;;;5043024;28;20264;-55
2023/08/19 05:35:24;;;;;;;26.23;24.13;;;19.60;99.90;;;;;;5041828;28;20200;-51
2023/08/19 05:37:50;;;;;;;25.43;23.33;;;19.70;99.90;;;;;;5043732;28;20428;-50
2023/08/19 05:40:15;;;;;;;26.80;24.20;;;19.80;99.90;;;;;;5043566;28;20225;-56
2023/08/19 05:42:41;;;;;;;25.70;23.60;;;19.90;99.90;;;;;;5042387;28;20182;-52
2023/08/19 05:45:07;;;;;;;25.43;23.53;;;19.90;99.90;;;;;;5043388;28;20196;-54
2023/08/19 05:47:33;;;;;;;26.00;24.00;;;20.00;99.90;;;;;;5042937;28;20216;-53
2023/08/19 05:49:59;;;;;;;26.77;24.50;;;19.90;99.90;;;;;;5043121;28;20766;-47
2023/08/19 05:52:24;;;;;;;24.70;22.67;;;20.00;99.90;;;;;;5043202;28;20189;-55
2023/08/19 05:54:50;;;;;;;25.53;23.63;;;20.10;99.90;;;;;;5040720;28;20189;-56
2023/08/19 05:57:16;;;;;;;25.43;23.43;;;20.10;99.90;;;;;;5025309;28;20259;-51
2023/08/19 05:59:41;;;;;;;24.90;23.00;;;20.20;99.90;;;;;;5042191;28;20459;-51
2023/08/19 06:02:07;;;;;;;24.73;22.57;;;20.30;99.90;;;;;;5041986;28;20982;-48
2023/08/19 06:04:33;;;;;;;24.03;22.23;;;20.40;99.90;;;;;;5041720;28;20253;-52
2023/08/19 06:06:58;;;;;;;25.37;23.37;;;20.40;99.90;;;;;;5040722;28;20649;-51
2023/08/19 06:09:24;;;;;;;24.83;23.03;;;20.50;99.90;;;;;;5040203;28;20268;-55
2023/08/19 06:11:52;;;;;;;25.60;23.60;;;20.50;99.90;;;;;;5040848;28;20174;-51
2023/08/19 06:14:19;;;;;;;25.33;23.33;;;20.70;99.90;;;;;;5038749;28;20219;-52
2023/08/19 06:16:46;;;;;;;24.87;22.77;;;20.80;99.90;;;;;;5042698;28;20740;-54
2023/08/19 06:19:12;;;;;;;24.50;22.63;;;20.90;99.90;;;;;;5041194;28;20440;-49
2023/08/19 06:21:38;;;;;;;24.27;22.30;;;21.00;99.90;;;;;;5042831;28;20452;-53
2023/08/19 06:24:04;;;;;;;24.83;23.07;;;21.10;99.90;;;;;;5040072;28;20579;-53
2023/08/19 06:26:30;;;;;;;23.90;22.20;;;21.20;99.90;;;;;;5040889;28;20182;-50
2023/08/19 06:28:55;;;;;;;24.53;22.73;;;21.40;99.90;;;;;;5038766;28;20829;-52
2023/08/19 06:31:21;;;;;;;24.60;22.63;;;21.50;99.90;;;;;;5039520;28;20186;-50
2023/08/19 06:33:51;;;;;;;25.70;23.73;;;21.60;99.90;;;;;;5040967;28;20174;-54
2023/08/19 06:36:22;;;;;;;24.03;22.30;;;21.70;99.90;;;;;;5042140;28;20466;-53
2023/08/19 06:38:57;;;;;;;23.83;22.23;;;21.80;99.90;;;;;;5039587;28;20581;-53
2023/08/19 06:41:23;;;;;;;22.90;21.30;;;21.90;99.90;;;;;;5040149;28;20996;-53
2023/08/19 06:43:51;;;;;;;22.97;21.37;;;22.10;99.90;;;;;;5040039;28;20436;-54
2023/08/19 06:46:18;;;;;;;23.97;22.30;;;22.20;99.90;;;;;;5040642;28;20451;-50
2023/08/19 06:48:45;;;;;;;23.47;21.77;;;22.30;99.90;;;;;;5038901;28;20471;-51
2023/08/19 06:51:11;;;;;;;23.47;21.93;;;22.50;99.90;;;;;;5039185;28;20547;-54
2023/08/19 06:53:37;;;;;;;24.33;22.63;;;22.60;99.90;;;;;;5038201;28;20527;-52
2023/08/19 06:56:23;;;;;;;23.07;21.47;;;22.70;99.90;;;;;;5041063;28;21069;-52
2023/08/19 06:58:56;;;;;;;22.27;20.67;;;22.80;99.90;;;;;;5035318;28;20220;-53
2023/08/19 07:01:29;;;;;;;23.20;21.60;;;22.90;99.90;;;;;;5038539;28;21214;-50
2023/08/19 07:03:56;;;;;;;22.10;20.60;;;23.00;99.90;;;;;;5040644;28;20521;-56
2023/08/19 07:06:22;;;;;;;22.97;21.37;;;23.10;99.90;;;;;;5040725;28;20482;-55
2023/08/19 07:08:48;;;;;;;21.97;20.13;;;23.30;99.90;;;;;;5031364;28;20922;-55
2023/08/19 07:11:15;;;;;;;21.83;20.33;;;23.30;99.90;;;;;;5038621;28;20450;-53
2023/08/19 07:13:42;;;;;;;21.70;20.20;;;23.40;99.90;;;;;;5040981;28;20401;-53
2023/08/19 07:16:10;;;;;;;22.80;21.20;;;23.60;99.90;;;;;;5040203;28;20494;-56
2023/08/19 07:18:39;;;;;;;22.20;20.70;;;23.70;99.90;;;;;;5014236;28;20432;-54
2023/08/19 07:21:09;;;;;;;22.83;21.23;;;24.00;99.90;;;;;;5041105;28;20428;-57
2023/08/19 07:23:35;;;;;;;21.40;19.97;;;24.10;99.90;;;;;;5039435;28;20785;-54
2023/08/19 07:26:01;;;;;;;21.37;19.87;;;24.30;99.90;;;;;;5040649;28;20420;-55
2023/08/19 07:28:30;;;;;;;22.00;20.47;;;24.40;99.90;;;;;;5040742;28;20546;-55
2023/08/19 07:30:56;;;;;;;21.37;19.93;;;24.50;99.90;;;;;;5039568;28;21221;-55
2023/08/19 07:33:21;;;;;;;21.77;20.27;;;24.60;99.90;;;;;;5039701;28;20416;-53
2023/08/19 07:35:47;;;;;;;21.37;19.93;;;24.70;99.90;;;;;;5038650;28;20174;-56
2023/08/19 07:38:13;;;;;;;22.00;20.50;;;24.80;99.90;;;;;;5039156;28;20182;-53
2023/08/19 07:40:39;;;;;;;23.27;21.60;;;24.90;99.90;;;;;;5040049;28;20230;-57
2023/08/19 07:43:05;;;;;;;22.00;20.60;;;25.00;99.90;;;;;;5039810;28;20416;-57
2023/08/19 07:45:31;;;;;;;20.63;19.27;;;25.20;99.90;;;;;;5040725;28;20228;-50
2023/08/19 07:47:56;;;;;;;20.73;19.40;;;25.40;99.90;;;;;;5040343;28;20193;-46
2023/08/19 07:50:24;;;;;;;20.77;19.37;;;25.50;99.90;;;;;;5040299;28;20213;-45
2023/08/19 07:52:49;;;;;;;20.87;19.57;;;25.70;99.90;;;;;;5040407;28;20518;-45
2023/08/19 07:55:15;;;;;;;21.13;19.83;;;25.90;99.90;;;;;;5040241;28;20412;-42
2023/08/19 07:57:40;;;;;;;21.60;20.20;;;26.20;99.90;;;;;;5040592;28;20285;-41
2023/08/19 08:00:07;;;;;;;21.47;19.87;;;26.30;99.90;;;;;;5040063;28;20178;-45
2023/08/19 08:02:32;;;;;;;21.70;20.30;;;26.50;99.90;;;;;;5040162;28;20190;-43
2023/08/19 08:04:58;;;;;;;21.37;19.97;;;26.70;99.90;;;;;;5040269;28;20902;-45
2023/08/19 08:07:24;;;;;;;21.80;20.30;;;26.80;99.90;;;;;;5039977;28;20721;-45
2023/08/19 08:09:50;;;;;;;20.83;19.47;;;27.00;99.90;;;;;;5040210;28;20499;-46
2023/08/19 08:12:20;;;;;;;21.23;19.93;;;27.10;99.90;;;;;;5041134;28;20185;-49
2023/08/19 08:14:46;;;;;;;20.53;19.13;;;27.30;99.90;;;;;;5041735;28;20182;-40
2023/08/19 08:17:12;;;;;;;20.77;19.40;;;27.40;99.90;;;;;;5022056;28;20443;-40
2023/08/19 08:19:38;;;;;;;21.80;20.50;;;27.50;99.90;;;;;;5040113;28;21119;-42
2023/08/19 08:22:05;;;;;;;20.90;19.70;;;27.50;99.90;;;;;;5039739;28;20251;-42
2023/08/19 08:24:31;;;;;;;20.83;19.43;;;27.70;99.90;;;;;;5039587;28;20561;-45
2023/08/19 08:26:57;;;;;;;20.63;19.33;;;27.80;99.90;;;;;;5039964;28;20459;-43
2023/08/19 08:29:24;;;;;;;20.70;19.50;;;28.00;99.90;;;;;;5039509;28;20448;-43
2023/08/19 08:31:49;;;;;;;21.33;20.00;;;28.10;99.90;;;;;;5039363;28;20540;-43
2023/08/19 08:34:15;;;;;;;20.63;19.33;;;28.30;99.90;;;;;;5039886;28;20428;-43
2023/08/19 08:36:40;;;;;;;20.90;19.60;;;28.40;99.90;;;;;;5039858;28;20170;-48
2023/08/19 08:39:06;;;;;;;21.00;19.60;;;28.60;99.90;;;;;;5039985;28;20248;-44
2023/08/19 08:41:37;;;;;;;20.70;19.33;;;28.60;99.90;;;;;;5040989;28;20273;-43
2023/08/19 08:44:04;;;;;;;21.60;20.30;;;28.60;99.90;;;;;;5044136;28;20792;-43
2023/08/19 08:46:30;;;;;;;20.50;19.30;;;28.80;99.90;;;;;;5043908;28;20408;-45
2023/08/19 08:48:57;;;;;;;21.77;20.00;;;28.80;99.90;;;;;;5043902;28;20468;-43
2023/08/19 08:51:24;;;;;;;20.07;18.87;;;29.00;99.90;;;;;;5043707;28;20501;-42
2023/08/19 08:53:50;;;;;;;19.93;18.73;;;29.10;98.20;;;;;;5043788;28;21592;-42
2023/08/19 08:56:17;;;;;;;19.97;18.57;;;29.20;97.00;;;;;;5043853;28;21206;-43
2023/08/19 08:58:43;;;;;;;20.60;19.30;;;29.40;97.80;;;;;;5026153;28;20542;-42
2023/08/19 09:01:10;;;;;;;18.77;17.67;;;29.50;98.00;;;;;;5043415;28;21404;-42
2023/08/19 09:03:39;;;;;;;19.10;18.00;;;29.70;95.80;;;;;;5043613;28;20194;-47
2023/08/19 09:06:10;;;;;;;20.10;19.00;;;29.80;93.60;;;;;;5043890;28;20495;-43
2023/08/19 09:09:04;;;;;;;19.33;18.10;;;30.00;92.10;;;;;;5043247;28;20819;-42
2023/08/19 09:11:34;;;;;;;18.93;17.83;;;30.30;91.20;;;;;;5041202;28;20440;-44
2023/08/19 09:14:37;;;;;;;19.73;18.63;;;30.50;92.00;;;;;;5043896;28;20424;-44
2023/08/19 09:17:02;;;;;;;18.40;17.40;;;30.70;89.50;;;;;;5043470;28;20440;-46
2023/08/19 09:19:28;;;;;;;18.20;17.20;;;30.80;84.60;;;;;;5043691;28;20420;-46
2023/08/19 09:21:54;;;;;;;17.70;16.57;;;31.00;80.60;;;;;;5043065;28;20193;-44
2023/08/19 09:24:20;;;;;;;17.47;16.57;;;31.20;74.50;;;;;;5043163;28;20233;-44
2023/08/19 09:26:45;;;;;;;18.87;17.87;;;31.20;70.70;;;;;;5043465;28;20616;-46
2023/08/19 09:29:11;;;;;;;17.93;17.03;;;31.30;69.90;;;;;;5025488;28;20432;-42
2023/08/19 09:31:40;;;;;;;18.00;16.93;;;31.50;69.40;;;;;;5044053;28;20189;-44
2023/08/19 09:34:06;;;;;;;17.60;16.67;;;31.70;68.70;;;;;;5043523;28;20896;-43
2023/08/19 09:36:31;;;;;;;17.87;16.97;;;31.70;67.20;;;;;;5043326;28;20501;-43
2023/08/19 09:38:57;;;;;;;17.90;16.90;;;31.80;59.90;;;;;;5043436;28;20239;-43
2023/08/19 09:41:33;;;;;;;16.67;15.77;;;31.90;62.90;;;;;;5043525;28;20185;-41
2023/08/19 09:43:59;;;;;;;17.63;16.63;;;32.00;62.20;;;;;;5025169;28;20912;-41
2023/08/19 09:46:32;;;;;;;17.23;16.13;;;32.20;59.60;;;;;;5043556;28;20476;-47
2023/08/19 09:48:58;;;;;;;17.20;16.30;;;32.30;55.70;;;;;;5042707;28;20202;-41
2023/08/19 09:51:28;;;;;;;17.10;16.20;;;32.50;56.20;;;;;;5043548;28;20452;-41
2023/08/19 09:53:57;;;;;;;17.70;16.70;;;32.60;56.20;;;;;;5041977;28;20932;-45
2023/08/19 09:56:27;;;;;;;16.37;15.47;;;32.70;56.20;;;;;;5043473;28;20424;-44
2023/08/19 09:58:56;;;;;;;18.60;17.50;;;32.80;57.20;;;;;;5043228;28;20443;-44
2023/08/19 10:01:25;;;;;;;17.43;16.53;;;33.00;56.60;;;;;;5043534;28;20426;-46
2023/08/19 10:03:51;;;;;;;18.03;16.83;;;33.10;54.00;;;;;;5042931;28;20428;-44
2023/08/19 10:06:23;;;;;;;17.30;16.40;;;33.30;52.40;;;;;;5042928;28;20482;-46
2023/08/19 10:08:53;;;;;;;18.20;17.20;;;33.40;53.20;;;;;;5042738;28;20568;-46
2023/08/19 10:11:19;;;;;;;17.50;16.60;;;33.50;52.80;;;;;;5042787;28;20428;-44
2023/08/19 10:13:45;;;;;;;17.80;16.80;;;33.60;52.30;;;;;;5042644;28;20534;-44
2023/08/19 10:16:13;;;;;;;18.30;17.30;;;33.80;51.00;;;;;;5042632;28;20424;-42
2023/08/19 10:18:42;;;;;;;17.70;16.70;;;33.90;51.10;;;;;;5042555;28;20773;-41
2023/08/19 10:21:11;;;;;;;17.70;16.77;;;34.00;50.10;;;;;;5024828;28;20938;-43
2023/08/19 10:23:40;;;;;;;17.57;16.57;;;34.30;50.40;;;;;;5042134;28;20416;-41
2023/08/19 10:26:06;;;;;;;17.80;16.80;;;34.40;47.50;;;;;;5042445;28;20749;-43
2023/08/19 10:28:33;;;;;;;18.20;17.20;;;34.40;47.70;;;;;;5042412;28;20495;-44
2023/08/19 10:31:08;;;;;;;17.60;16.70;;;34.50;46.70;;;;;;5042395;28;20416;-42
2023/08/19 10:33:47;;;;;;;18.17;17.17;;;34.70;48.20;;;;;;5042479;28;20437;-43
2023/08/19 10:36:16;;;;;;;19.13;18.03;;;34.80;47.90;;;;;;5024349;28;20428;-42
2023/08/19 10:38:46;;;;;;;18.60;17.70;;;34.90;47.00;;;;;;5042327;28;20478;-44
2023/08/19 10:41:35;;;;;;;18.63;17.63;;;35.00;44.50;;;;;;5042076;28;21009;-46
2023/08/19 10:44:08;;;;;;;18.50;17.60;;;35.20;44.30;;;;;;5041758;28;20409;-47
2023/08/19 10:46:38;;;;;;;19.47;18.37;;;35.40;44.90;;;;;;5042368;28;20651;-42
2023/08/19 10:49:12;;;;;;;18.67;17.60;;;35.60;44.40;;;;;;5042327;28;20409;-48
2023/08/19 10:51:59;;;;;;;16.77;15.87;;;35.90;42.40;;;;;;5041553;28;20412;-44
2023/08/19 10:54:29;;;;;;;17.37;16.47;;;35.90;41.90;;;;;;5044261;28;20411;-43
2023/08/19 10:57:13;;;;;;;17.80;16.90;;;36.10;42.60;;;;;;5041904;28;20408;-46
2023/08/19 10:59:44;;;;;;;17.63;16.70;;;36.10;42.00;;;;;;5024086;28;20428;-48
2023/08/19 11:02:11;;;;;;;17.50;16.60;;;36.20;42.30;;;;;;5041790;28;20408;-42
2023/08/19 11:04:41;;;;;;;18.70;17.70;;;36.30;43.00;;;;;;5041577;28;20792;-43
2023/08/19 11:07:07;;;;;;;18.57;17.57;;;36.60;41.80;;;;;;5042097;28;20448;-44
2023/08/19 11:09:34;;;;;;;18.77;17.67;;;36.80;40.20;;;;;;5024028;28;20474;-46
2023/08/19 11:12:00;;;;;;;18.17;17.27;;;37.00;39.00;;;;;;5042127;28;20435;-44
2023/08/19 11:14:26;;;;;;;17.10;16.20;;;37.10;38.90;;;;;;5041825;28;20441;-47
2023/08/19 11:16:54;;;;;;;16.83;16.03;;;37.20;37.80;;;;;;5041594;28;20939;-47
2023/08/19 11:19:21;;;;;;;18.13;17.23;;;37.30;37.20;;;;;;5041979;28;20174;-44
2023/08/19 11:21:47;;;;;;;17.53;16.53;;;37.40;36.80;;;;;;5042150;28;20420;-48
2023/08/19 11:24:14;;;;;;;18.23;17.23;;;37.60;36.30;;;;;;5041531;28;20462;-43
2023/08/19 11:26:47;;;;;;;17.80;16.90;;;37.80;35.70;;;;;;5041225;28;20419;-46
2023/08/19 11:29:13;;;;;;;18.50;17.60;;;38.00;35.30;;;;;;5041006;28;20579;-44
2023/08/19 11:31:41;;;;;;;18.93;17.73;;;38.30;35.00;;;;;;5041295;28;20508;-43
2023/08/19 11:34:07;;;;;;;17.97;16.67;;;38.50;33.60;;;;;;5041317;28;20178;-43
2023/08/19 11:36:34;;;;;;;17.50;16.60;;;38.60;31.40;;;;;;5041127;28;20439;-46
2023/08/19 11:39:00;;;;;;;17.50;16.60;;;38.80;31.80;;;;;;5041195;28;20431;-48
2023/08/19 11:41:25;;;;;;;17.80;16.97;;;38.90;32.20;;;;;;5041498;28;20420;-47
2023/08/19 11:43:53;;;;;;;18.40;17.50;;;39.10;31.90;;;;;;5041020;28;20242;-43
2023/08/19 11:46:19;;;;;;;20.03;19.03;;;39.50;31.30;;;;;;5040938;28;20173;-47
2023/08/19 11:48:45;;;;;;;18.13;17.17;;;39.80;29.80;;;;;;5041123;28;20521;-47
2023/08/19 11:51:11;;;;;;;18.03;17.13;;;40.20;29.10;;;;;;5040667;28;20436;-45
2023/08/19 11:53:39;;;;;;;18.67;17.60;;;40.50;28.30;;;;;;5040837;28;20193;-45
2023/08/19 11:56:05;;;;;;;18.27;17.13;;;40.60;28.20;;;;;;5040628;28;20417;-46
2023/08/19 11:58:51;;;;;;;17.00;16.20;;;40.50;28.30;;;;;;5040990;28;20431;-45
2023/08/19 12:01:18;;;;;;;16.73;15.83;;;40.90;27.40;;;;;;5040875;28;20655;-43
2023/08/19 12:03:45;;;;;;;18.20;17.30;;;41.10;27.20;;;;;;5040910;28;20432;-43
2023/08/19 12:06:12;;;;;;;18.00;17.20;;;41.30;27.30;;;;;;5040576;28;20443;-45
2023/08/19 12:08:41;;;;;;;17.73;16.83;;;41.50;26.40;;;;;;5039305;28;20550;-43
2023/08/19 12:11:07;;;;;;;18.97;17.90;;;41.10;26.60;;;;;;5038829;28;21393;-42
2023/08/19 12:13:33;;;;;;;17.63;16.83;;;40.90;26.30;;;;;;5039113;28;20942;-42
2023/08/19 12:15:58;;;;;;;17.07;16.27;;;40.90;25.90;;;;;;5038940;28;20493;-42
2023/08/19 12:18:24;;;;;;;17.43;16.53;;;41.10;26.40;;;;;;5040410;28;20192;-45
2023/08/19 12:20:52;;;;;;;17.60;16.57;;;41.20;25.60;;;;;;5040189;28;20186;-46
2023/08/19 12:23:18;;;;;;;17.93;17.00;;;41.20;24.60;;;;;;5040379;28;20194;-44
2023/08/19 12:25:51;;;;;;;19.10;18.10;;;41.50;26.40;;;;;;5039953;28;20467;-43
2023/08/19 12:28:17;;;;;;;19.10;18.00;;;41.40;24.20;;;;;;5040315;28;20472;-42
2023/08/19 12:30:43;;;;;;;18.27;17.37;;;41.60;25.40;;;;;;5040392;28;20462;-45